sensor_id;sensor_type;location;lat;lon;timestamp;pressure;altitude;pressure_sealevel;temperature;humidity
5952;BME280;3001;42.622;23.194;2023-06-19T00:00:02;91475.13;;;20.35;90.84
5952;BME280;3001;42.622;23.194;2023-06-19T00:02:33;91470.56;;;20.32;92.33
5952;BME280;3001;42.622;23.194;2023-06-19T00:05:00;91473.34;;;20.17;92.30
5952;BME280;3001;42.622;23.194;2023-06-19T00:07:27;91473.38;;;20.20;91.61
5952;BME280;3001;42.622;23.194;2023-06-19T00:09:53;91463.91;;;20.16;93.45
5952;BME280;3001;42.622;23.194;2023-06-19T00:12:20;91466.53;;;20.16;93.25
5952;BME280;3001;42.622;23.194;2023-06-19T00:14:47;91474.28;;;20.05;94.80
5952;BME280;3001;42.622;23.194;2023-06-19T00:17:13;91460.03;;;20.10;95.55
5952;BME280;3001;42.622;23.194;2023-06-19T00:19:43;91464.25;;;20.14;94.94
5952;BME280;3001;42.622;23.194;2023-06-19T00:22:10;91458.72;;;20.23;94.28
5952;BME280;3001;42.622;23.194;2023-06-19T00:24:37;91464.78;;;20.23;92.92
5952;BME280;3001;42.622;23.194;2023-06-19T00:27:04;91460.72;;;20.29;92.33
5952;BME280;3001;42.622;23.194;2023-06-19T00:29:32;91456.59;;;20.32;93.51
5952;BME280;3001;42.622;23.194;2023-06-19T00:31:59;91458.63;;;20.16;93.96
5952;BME280;3001;42.622;23.194;2023-06-19T00:34:25;91456.81;;;20.20;94.44
5952;BME280;3001;42.622;23.194;2023-06-19T00:36:54;91458.31;;;20.21;93.85
5952;BME280;3001;42.622;23.194;2023-06-19T00:39:21;91452.28;;;20.20;94.04
5952;BME280;3001;42.622;23.194;2023-06-19T00:41:49;91457.22;;;20.22;93.74
5952;BME280;3001;42.622;23.194;2023-06-19T00:44:17;91451.69;;;20.30;94.10
5952;BME280;3001;42.622;23.194;2023-06-19T00:46:44;91456.97;;;20.30;94.39
5952;BME280;3001;42.622;23.194;2023-06-19T00:49:12;91452.41;;;20.27;94.01
5952;BME280;3001;42.622;23.194;2023-06-19T00:51:40;91455.13;;;20.34;93.42
5952;BME280;3001;42.622;23.194;2023-06-19T00:54:08;91444.75;;;20.45;92.30
5952;BME280;3001;42.622;23.194;2023-06-19T00:56:37;91440.16;;;20.42;92.58
5952;BME280;3001;42.622;23.194;2023-06-19T00:59:06;91432.41;;;20.52;91.98
5952;BME280;3001;42.622;23.194;2023-06-19T01:01:34;91437.78;;;20.59;90.86
5952;BME280;3001;42.622;23.194;2023-06-19T01:04:00;91435.44;;;20.54;91.96
5952;BME280;3001;42.622;23.194;2023-06-19T01:06:32;91432.94;;;20.65;90.87
5952;BME280;3001;42.622;23.194;2023-06-19T01:09:05;91433.22;;;20.56;90.53
5952;BME280;3001;42.622;23.194;2023-06-19T01:11:45;91433.47;;;20.48;89.99
5952;BME280;3001;42.622;23.194;2023-06-19T01:14:18;91427.31;;;20.40;90.50
5952;BME280;3001;42.622;23.194;2023-06-19T01:16:45;91427.56;;;20.32;91.11
5952;BME280;3001;42.622;23.194;2023-06-19T01:19:17;91423.38;;;20.27;91.29
5952;BME280;3001;42.622;23.194;2023-06-19T01:21:45;91414.44;;;20.09;91.97
5952;BME280;3001;42.622;23.194;2023-06-19T01:24:13;91415.91;;;20.07;92.40
5952;BME280;3001;42.622;23.194;2023-06-19T01:26:40;91418.53;;;20.07;92.28
5952;BME280;3001;42.622;23.194;2023-06-19T01:29:11;91418.25;;;20.12;90.64
5952;BME280;3001;42.622;23.194;2023-06-19T01:31:44;91424.44;;;20.00;91.33
5952;BME280;3001;42.622;23.194;2023-06-19T01:34:12;91425.00;;;20.09;89.75
5952;BME280;3001;42.622;23.194;2023-06-19T01:36:41;91425.53;;;19.99;89.97
5952;BME280;3001;42.622;23.194;2023-06-19T01:39:08;91434.72;;;19.83;90.86
5952;BME280;3001;42.622;23.194;2023-06-19T01:41:38;91436.34;;;19.68;92.02
5952;BME280;3001;42.622;23.194;2023-06-19T01:44:06;91439.97;;;19.60;92.67
5952;BME280;3001;42.622;23.194;2023-06-19T01:46:33;91428.56;;;19.53;93.16
5952;BME280;3001;42.622;23.194;2023-06-19T01:49:00;91433.34;;;19.47;92.40
5952;BME280;3001;42.622;23.194;2023-06-19T01:51:26;91424.91;;;19.38;92.04
5952;BME280;3001;42.622;23.194;2023-06-19T01:53:53;91431.41;;;19.44;90.44
5952;BME280;3001;42.622;23.194;2023-06-19T01:56:20;91440.03;;;19.41;90.53
5952;BME280;3001;42.622;23.194;2023-06-19T01:58:50;91441.63;;;19.27;91.30
5952;BME280;3001;42.622;23.194;2023-06-19T02:01:18;91444.31;;;19.49;91.15
5952;BME280;3001;42.622;23.194;2023-06-19T02:03:45;91444.19;;;19.42;91.35
5952;BME280;3001;42.622;23.194;2023-06-19T02:06:11;91439.75;;;19.46;90.61
5952;BME280;3001;42.622;23.194;2023-06-19T02:08:38;91447.16;;;19.41;90.92
5952;BME280;3001;42.622;23.194;2023-06-19T02:11:05;91444.19;;;19.42;91.03
5952;BME280;3001;42.622;23.194;2023-06-19T02:13:31;91450.84;;;19.36;91.66
5952;BME280;3001;42.622;23.194;2023-06-19T02:15:59;91452.44;;;19.41;91.26
5952;BME280;3001;42.622;23.194;2023-06-19T02:18:26;91457.06;;;19.47;90.76
5952;BME280;3001;42.622;23.194;2023-06-19T02:20:53;91458.00;;;19.36;92.01
5952;BME280;3001;42.622;23.194;2023-06-19T02:23:19;91454.66;;;19.39;91.79
5952;BME280;3001;42.622;23.194;2023-06-19T02:25:46;91454.03;;;19.45;90.79
5952;BME280;3001;42.622;23.194;2023-06-19T02:28:13;91452.81;;;19.62;89.48
5952;BME280;3001;42.622;23.194;2023-06-19T02:30:39;91458.78;;;19.59;89.65
5952;BME280;3001;42.622;23.194;2023-06-19T02:33:07;91458.00;;;19.58;90.76
5952;BME280;3001;42.622;23.194;2023-06-19T02:35:34;91460.47;;;19.70;89.74
5952;BME280;3001;42.622;23.194;2023-06-19T02:38:00;91466.38;;;19.64;89.34
5952;BME280;3001;42.622;23.194;2023-06-19T02:40:29;91464.31;;;19.73;88.85
5952;BME280;3001;42.622;23.194;2023-06-19T02:42:56;91458.84;;;19.62;89.67
5952;BME280;3001;42.622;23.194;2023-06-19T02:45:23;91464.31;;;19.73;88.40
5952;BME280;3001;42.622;23.194;2023-06-19T02:47:49;91465.34;;;19.68;87.53
5952;BME280;3001;42.622;23.194;2023-06-19T02:50:18;91460.59;;;19.55;87.89
5952;BME280;3001;42.622;23.194;2023-06-19T02:52:45;91465.94;;;19.39;88.63
5952;BME280;3001;42.622;23.194;2023-06-19T02:55:12;91459.44;;;19.33;88.40
5952;BME280;3001;42.622;23.194;2023-06-19T02:57:38;91463.88;;;19.11;89.06
5952;BME280;3001;42.622;23.194;2023-06-19T03:00:06;91464.56;;;18.89;89.87
5952;BME280;3001;42.622;23.194;2023-06-19T03:02:34;91473.13;;;18.67;90.94
5952;BME280;3001;42.622;23.194;2023-06-19T03:05:02;91470.34;;;18.60;91.24
5952;BME280;3001;42.622;23.194;2023-06-19T03:07:30;91462.13;;;18.46;93.23
5952;BME280;3001;42.622;23.194;2023-06-19T03:09:57;91470.53;;;18.51;92.48
5952;BME280;3001;42.622;23.194;2023-06-19T03:12:24;91472.25;;;18.44;92.86
5952;BME280;3001;42.622;23.194;2023-06-19T03:14:51;91467.03;;;18.47;92.33
5952;BME280;3001;42.622;23.194;2023-06-19T03:17:17;91465.38;;;18.39;92.60
5952;BME280;3001;42.622;23.194;2023-06-19T03:19:44;91464.63;;;18.39;92.92
5952;BME280;3001;42.622;23.194;2023-06-19T03:22:10;91464.81;;;18.30;92.91
5952;BME280;3001;42.622;23.194;2023-06-19T03:24:38;91466.38;;;18.50;92.71
5952;BME280;3001;42.622;23.194;2023-06-19T03:27:06;91465.59;;;18.50;93.03
5952;BME280;3001;42.622;23.194;2023-06-19T03:29:32;91466.03;;;18.52;92.87
5952;BME280;3001;42.622;23.194;2023-06-19T03:31:59;91460.06;;;18.55;92.20
5952;BME280;3001;42.622;23.194;2023-06-19T03:34:26;91466.84;;;18.56;92.46
5952;BME280;3001;42.622;23.194;2023-06-19T03:36:52;91467.34;;;18.61;91.55
5952;BME280;3001;42.622;23.194;2023-06-19T03:39:19;91458.53;;;18.54;91.60
5952;BME280;3001;42.622;23.194;2023-06-19T03:41:47;91459.66;;;18.53;92.64
5952;BME280;3001;42.622;23.194;2023-06-19T03:44:14;91460.25;;;18.46;92.30
5952;BME280;3001;42.622;23.194;2023-06-19T03:46:40;91464.91;;;18.53;92.08
5952;BME280;3001;42.622;23.194;2023-06-19T03:49:08;91467.41;;;18.46;92.38
5952;BME280;3001;42.622;23.194;2023-06-19T03:51:35;91465.50;;;18.62;91.90
5952;BME280;3001;42.622;23.194;2023-06-19T03:54:01;91463.97;;;18.61;91.43
5952;BME280;3001;42.622;23.194;2023-06-19T03:56:28;91465.34;;;18.55;92.62
5952;BME280;3001;42.622;23.194;2023-06-19T03:58:56;91464.97;;;18.91;91.25
5952;BME280;3001;42.622;23.194;2023-06-19T04:01:23;91470.56;;;18.70;92.21
5952;BME280;3001;42.622;23.194;2023-06-19T04:03:49;91462.19;;;18.84;91.96
5952;BME280;3001;42.622;23.194;2023-06-19T04:06:16;91457.34;;;18.67;92.84
5952;BME280;3001;42.622;23.194;2023-06-19T04:08:43;91460.25;;;18.81;93.71
5952;BME280;3001;42.622;23.194;2023-06-19T04:11:09;91468.50;;;18.79;93.63
5952;BME280;3001;42.622;23.194;2023-06-19T04:13:36;91460.69;;;18.83;93.82
5952;BME280;3001;42.622;23.194;2023-06-19T04:16:04;91463.56;;;18.97;92.50
5952;BME280;3001;42.622;23.194;2023-06-19T04:18:31;91468.63;;;19.05;92.29
5952;BME280;3001;42.622;23.194;2023-06-19T04:20:57;91458.00;;;19.17;91.93
5952;BME280;3001;42.622;23.194;2023-06-19T04:23:24;91463.16;;;18.95;93.03
5952;BME280;3001;42.622;23.194;2023-06-19T04:25:51;91461.59;;;18.90;93.66
5952;BME280;3001;42.622;23.194;2023-06-19T04:28:18;91454.31;;;19.03;93.17
5952;BME280;3001;42.622;23.194;2023-06-19T04:30:44;91461.34;;;18.99;93.18
5952;BME280;3001;42.622;23.194;2023-06-19T04:33:12;91455.13;;;18.88;93.78
5952;BME280;3001;42.622;23.194;2023-06-19T04:35:39;91454.63;;;18.82;94.70
5952;BME280;3001;42.622;23.194;2023-06-19T04:38:06;91453.41;;;18.95;94.35
5952;BME280;3001;42.622;23.194;2023-06-19T04:40:33;91453.25;;;18.88;95.24
5952;BME280;3001;42.622;23.194;2023-06-19T04:43:00;91456.16;;;19.02;94.94
5952;BME280;3001;42.622;23.194;2023-06-19T04:45:28;91458.53;;;19.26;94.24
5952;BME280;3001;42.622;23.194;2023-06-19T04:47:54;91444.63;;;19.26;94.68
5952;BME280;3001;42.622;23.194;2023-06-19T04:50:22;91457.84;;;19.29;95.21
5952;BME280;3001;42.622;23.194;2023-06-19T04:52:49;91455.53;;;19.46;94.55
5952;BME280;3001;42.622;23.194;2023-06-19T04:55:16;91455.84;;;19.41;94.61
5952;BME280;3001;42.622;23.194;2023-06-19T04:57:43;91448.78;;;19.27;96.09
5952;BME280;3001;42.622;23.194;2023-06-19T05:00:10;91449.91;;;19.48;95.60
5952;BME280;3001;42.622;23.194;2023-06-19T05:02:38;91451.97;;;19.58;94.62
5952;BME280;3001;42.622;23.194;2023-06-19T05:05:09;91447.28;;;19.48;95.17
5952;BME280;3001;42.622;23.194;2023-06-19T05:07:37;91446.16;;;19.49;94.87
5952;BME280;3001;42.622;23.194;2023-06-19T05:10:04;91450.69;;;19.48;94.90
5952;BME280;3001;42.622;23.194;2023-06-19T05:12:30;91447.50;;;19.39;95.65
5952;BME280;3001;42.622;23.194;2023-06-19T05:14:57;91452.50;;;19.44;96.52
5952;BME280;3001;42.622;23.194;2023-06-19T05:17:24;91456.84;;;19.56;95.72
5952;BME280;3001;42.622;23.194;2023-06-19T05:19:50;91459.06;;;19.76;95.18
5952;BME280;3001;42.622;23.194;2023-06-19T05:22:17;91461.25;;;19.93;94.46
5952;BME280;3001;42.622;23.194;2023-06-19T05:24:48;91460.50;;;19.93;94.22
5952;BME280;3001;42.622;23.194;2023-06-19T05:27:14;91464.19;;;19.88;94.51
5952;BME280;3001;42.622;23.194;2023-06-19T05:29:41;91468.44;;;19.96;93.13
5952;BME280;3001;42.622;23.194;2023-06-19T05:32:08;91474.00;;;20.10;92.86
5952;BME280;3001;42.622;23.194;2023-06-19T05:34:34;91472.19;;;19.95;94.18
5952;BME280;3001;42.622;23.194;2023-06-19T05:37:01;91488.69;;;20.11;94.05
5952;BME280;3001;42.622;23.194;2023-06-19T05:39:29;91486.00;;;20.08;92.78
5952;BME280;3001;42.622;23.194;2023-06-19T05:41:57;91492.56;;;20.17;93.26
5952;BME280;3001;42.622;23.194;2023-06-19T05:44:24;91483.31;;;20.04;93.48
5952;BME280;3001;42.622;23.194;2023-06-19T05:46:50;91497.38;;;20.12;90.70
5952;BME280;3001;42.622;23.194;2023-06-19T05:49:17;91486.16;;;20.18;89.44
5952;BME280;3001;42.622;23.194;2023-06-19T05:51:44;91498.53;;;20.14;89.83
5952;BME280;3001;42.622;23.194;2023-06-19T05:54:10;91488.81;;;20.18;88.23
5952;BME280;3001;42.622;23.194;2023-06-19T05:56:37;91494.72;;;20.34;88.27
5952;BME280;3001;42.622;23.194;2023-06-19T05:59:06;91492.25;;;20.45;88.58
5952;BME280;3001;42.622;23.194;2023-06-19T06:01:32;91497.34;;;20.34;90.46
5952;BME280;3001;42.622;23.194;2023-06-19T06:03:59;91501.97;;;20.41;90.52
5952;BME280;3001;42.622;23.194;2023-06-19T06:06:27;91500.78;;;20.61;89.67
5952;BME280;3001;42.622;23.194;2023-06-19T06:08:53;91495.66;;;20.45;86.74
5952;BME280;3001;42.622;23.194;2023-06-19T06:11:22;91506.81;;;20.61;88.22
5952;BME280;3001;42.622;23.194;2023-06-19T06:13:48;91500.53;;;20.69;90.41
5952;BME280;3001;42.622;23.194;2023-06-19T06:16:16;91502.75;;;20.67;86.15
5952;BME280;3001;42.622;23.194;2023-06-19T06:18:44;91502.78;;;20.71;83.16
5952;BME280;3001;42.622;23.194;2023-06-19T06:21:11;91505.75;;;20.92;83.55
5952;BME280;3001;42.622;23.194;2023-06-19T06:23:38;91515.25;;;20.96;84.53
5952;BME280;3001;42.622;23.194;2023-06-19T06:26:05;91513.88;;;21.06;86.57
5952;BME280;3001;42.622;23.194;2023-06-19T06:28:31;91505.19;;;20.79;86.52
5952;BME280;3001;42.622;23.194;2023-06-19T06:30:58;91510.25;;;21.17;85.19
5952;BME280;3001;42.622;23.194;2023-06-19T06:33:26;91514.06;;;21.19;87.05
5952;BME280;3001;42.622;23.194;2023-06-19T06:35:54;91506.66;;;21.32;86.97
5952;BME280;3001;42.622;23.194;2023-06-19T06:38:21;91517.81;;;21.48;84.21
5952;BME280;3001;42.622;23.194;2023-06-19T06:40:48;91515.03;;;21.67;83.34
5952;BME280;3001;42.622;23.194;2023-06-19T06:43:15;91524.09;;;21.66;82.83
5952;BME280;3001;42.622;23.194;2023-06-19T06:45:42;91520.28;;;21.63;80.66
5952;BME280;3001;42.622;23.194;2023-06-19T06:48:09;91526.09;;;21.76;79.64
5952;BME280;3001;42.622;23.194;2023-06-19T06:50:37;91523.88;;;21.81;79.87
5952;BME280;3001;42.622;23.194;2023-06-19T06:53:03;91517.91;;;21.88;81.14
5952;BME280;3001;42.622;23.194;2023-06-19T06:55:30;91514.94;;;21.93;80.96
5952;BME280;3001;42.622;23.194;2023-06-19T06:57:57;91524.97;;;22.17;78.80
5952;BME280;3001;42.622;23.194;2023-06-19T07:00:23;91521.06;;;22.00;80.71
5952;BME280;3001;42.622;23.194;2023-06-19T07:02:50;91523.81;;;22.14;81.74
5952;BME280;3001;42.622;23.194;2023-06-19T07:05:17;91525.72;;;22.54;80.61
5952;BME280;3001;42.622;23.194;2023-06-19T07:07:45;91517.13;;;22.71;81.03
5952;BME280;3001;42.622;23.194;2023-06-19T07:10:11;91518.97;;;22.63;81.31
5952;BME280;3001;42.622;23.194;2023-06-19T07:12:46;91519.41;;;22.69;80.53
5952;BME280;3001;42.622;23.194;2023-06-19T07:15:13;91528.13;;;22.76;74.19
5952;BME280;3001;42.622;23.194;2023-06-19T07:17:40;91527.00;;;22.74;75.37
5952;BME280;3001;42.622;23.194;2023-06-19T07:20:07;91532.41;;;22.91;72.72
5952;BME280;3001;42.622;23.194;2023-06-19T07:22:34;91527.22;;;23.08;73.45
5952;BME280;3001;42.622;23.194;2023-06-19T07:25:04;91531.69;;;22.97;77.83
5952;BME280;3001;42.622;23.194;2023-06-19T07:27:31;91536.00;;;23.19;75.66
5952;BME280;3001;42.622;23.194;2023-06-19T07:29:57;91541.28;;;23.12;74.55
5952;BME280;3001;42.622;23.194;2023-06-19T07:32:24;91541.28;;;23.12;73.66
5952;BME280;3001;42.622;23.194;2023-06-19T07:34:51;91544.78;;;23.27;72.03
5952;BME280;3001;42.622;23.194;2023-06-19T07:37:17;91538.28;;;23.17;70.95
5952;BME280;3001;42.622;23.194;2023-06-19T07:39:44;91545.63;;;23.45;72.26
5952;BME280;3001;42.622;23.194;2023-06-19T07:42:13;91548.72;;;23.61;72.91
5952;BME280;3001;42.622;23.194;2023-06-19T07:44:40;91540.44;;;23.76;74.73
5952;BME280;3001;42.622;23.194;2023-06-19T07:47:07;91541.28;;;23.94;71.84
5952;BME280;3001;42.622;23.194;2023-06-19T07:49:34;91545.84;;;23.94;72.80
5952;BME280;3001;42.622;23.194;2023-06-19T07:52:01;91542.47;;;24.11;74.51
5952;BME280;3001;42.622;23.194;2023-06-19T07:54:28;91552.75;;;24.33;70.65
5952;BME280;3001;42.622;23.194;2023-06-19T07:56:54;91552.75;;;24.40;68.62
5952;BME280;3001;42.622;23.194;2023-06-19T07:59:22;91560.78;;;24.61;64.88
5952;BME280;3001;42.622;23.194;2023-06-19T08:01:49;91558.13;;;24.54;69.04
5952;BME280;3001;42.622;23.194;2023-06-19T08:04:16;91552.03;;;24.54;69.33
5952;BME280;3001;42.622;23.194;2023-06-19T08:06:42;91558.88;;;24.55;69.35
5952;BME280;3001;42.622;23.194;2023-06-19T08:09:09;91560.41;;;24.83;70.13
5952;BME280;3001;42.622;23.194;2023-06-19T08:11:36;91561.53;;;24.96;64.08
5952;BME280;3001;42.622;23.194;2023-06-19T08:14:02;91562.69;;;25.20;61.87
5952;BME280;3001;42.622;23.194;2023-06-19T08:16:31;91555.47;;;25.06;66.07
5952;BME280;3001;42.622;23.194;2023-06-19T08:18:57;91555.81;;;25.12;68.17
5952;BME280;3001;42.622;23.194;2023-06-19T08:21:24;91558.50;;;25.26;65.63
5952;BME280;3001;42.622;23.194;2023-06-19T08:23:50;91564.94;;;25.39;62.99
5952;BME280;3001;42.622;23.194;2023-06-19T08:26:17;91562.66;;;25.44;63.78
5952;BME280;3001;42.622;23.194;2023-06-19T08:28:44;91556.16;;;25.52;63.28
5952;BME280;3001;42.622;23.194;2023-06-19T08:31:11;91560.72;;;25.59;63.65
5952;BME280;3001;42.622;23.194;2023-06-19T08:33:39;91565.97;;;25.73;64.52
5952;BME280;3001;42.622;23.194;2023-06-19T08:36:05;91579.22;;;25.97;58.31
5952;BME280;3001;42.622;23.194;2023-06-19T08:38:32;91577.25;;;26.15;52.70
5952;BME280;3001;42.622;23.194;2023-06-19T08:40:59;91568.88;;;26.17;51.86
5952;BME280;3001;42.622;23.194;2023-06-19T08:43:25;91564.22;;;26.35;59.14
5952;BME280;3001;42.622;23.194;2023-06-19T08:46:04;91568.72;;;26.41;61.22
5952;BME280;3001;42.622;23.194;2023-06-19T08:48:34;91559.94;;;26.44;59.39
5952;BME280;3001;42.622;23.194;2023-06-19T08:51:02;91558.53;;;26.29;62.34
5952;BME280;3001;42.622;23.194;2023-06-19T08:53:32;91546.63;;;26.48;63.64
5952;BME280;3001;42.622;23.194;2023-06-19T08:56:00;91551.16;;;26.58;58.48
5952;BME280;3001;42.622;23.194;2023-06-19T08:58:27;91568.97;;;26.64;55.38
5952;BME280;3001;42.622;23.194;2023-06-19T09:00:53;91573.25;;;26.44;55.63
5952;BME280;3001;42.622;23.194;2023-06-19T09:03:21;91569.75;;;26.65;58.98
5952;BME280;3001;42.622;23.194;2023-06-19T09:05:48;91565.59;;;26.60;59.88
5952;BME280;3001;42.622;23.194;2023-06-19T09:08:18;91560.63;;;26.62;61.45
5952;BME280;3001;42.622;23.194;2023-06-19T09:10:57;91565.31;;;26.98;62.95
5952;BME280;3001;42.622;23.194;2023-06-19T09:13:24;91564.72;;;27.24;62.51
5952;BME280;3001;42.622;23.194;2023-06-19T09:15:58;91567.66;;;27.37;58.61
5952;BME280;3001;42.622;23.194;2023-06-19T09:18:25;91566.78;;;27.47;60.92
5952;BME280;3001;42.622;23.194;2023-06-19T09:20:53;91573.84;;;27.67;60.22
5952;BME280;3001;42.622;23.194;2023-06-19T09:23:21;91571.09;;;27.74;56.84
5952;BME280;3001;42.622;23.194;2023-06-19T09:25:50;91577.69;;;28.00;55.01
5952;BME280;3001;42.622;23.194;2023-06-19T09:28:18;91584.50;;;28.04;44.65
5952;BME280;3001;42.622;23.194;2023-06-19T09:30:55;91572.66;;;28.05;54.16
5952;BME280;3001;42.622;23.194;2023-06-19T09:33:24;91581.28;;;28.16;51.80
5952;BME280;3001;42.622;23.194;2023-06-19T09:35:51;91575.00;;;28.33;47.99
5952;BME280;3001;42.622;23.194;2023-06-19T09:38:22;91576.44;;;28.41;45.40
5952;BME280;3001;42.622;23.194;2023-06-19T09:40:51;91571.03;;;28.45;44.00
5952;BME280;3001;42.622;23.194;2023-06-19T09:43:19;91579.13;;;28.41;46.31
5952;BME280;3001;42.622;23.194;2023-06-19T09:45:49;91566.16;;;28.40;51.92
5952;BME280;3001;42.622;23.194;2023-06-19T09:48:19;91566.78;;;28.51;53.42
5952;BME280;3001;42.622;23.194;2023-06-19T09:50:48;91572.59;;;28.68;49.26
5952;BME280;3001;42.622;23.194;2023-06-19T09:53:17;91568.38;;;28.71;52.25
5952;BME280;3001;42.622;23.194;2023-06-19T09:55:47;91569.00;;;28.82;52.71
5952;BME280;3001;42.622;23.194;2023-06-19T09:58:16;91564.66;;;28.91;51.80
5952;BME280;3001;42.622;23.194;2023-06-19T10:00:43;91558.56;;;29.14;49.24
5952;BME280;3001;42.622;23.194;2023-06-19T10:03:11;91551.00;;;29.09;45.97
5952;BME280;3001;42.622;23.194;2023-06-19T10:05:38;91555.66;;;29.05;50.33
5952;BME280;3001;42.622;23.194;2023-06-19T10:08:06;91556.22;;;28.93;52.03
5952;BME280;3001;42.622;23.194;2023-06-19T10:10:34;91550.19;;;28.89;48.06
5952;BME280;3001;42.622;23.194;2023-06-19T10:13:14;91549.53;;;29.04;50.62
5952;BME280;3001;42.622;23.194;2023-06-19T10:15:41;91553.50;;;29.19;50.25
5952;BME280;3001;42.622;23.194;2023-06-19T10:18:14;91557.63;;;29.24;47.79
5952;BME280;3001;42.622;23.194;2023-06-19T10:20:42;91556.06;;;29.26;44.76
5952;BME280;3001;42.622;23.194;2023-06-19T10:23:11;91559.03;;;29.32;47.40
5952;BME280;3001;42.622;23.194;2023-06-19T10:25:39;91555.06;;;29.40;51.31
5952;BME280;3001;42.622;23.194;2023-06-19T10:28:18;91552.28;;;29.47;50.21
5952;BME280;3001;42.622;23.194;2023-06-19T10:30:52;91556.97;;;29.62;47.23
5952;BME280;3001;42.622;23.194;2023-06-19T10:33:18;91546.75;;;29.57;46.30
5952;BME280;3001;42.622;23.194;2023-06-19T10:35:45;91551.81;;;29.52;49.24
5952;BME280;3001;42.622;23.194;2023-06-19T10:38:14;91550.41;;;29.67;52.53
5952;BME280;3001;42.622;23.194;2023-06-19T10:40:42;91549.03;;;29.78;53.33
5952;BME280;3001;42.622;23.194;2023-06-19T10:43:09;91545.47;;;29.85;50.05
5952;BME280;3001;42.622;23.194;2023-06-19T10:45:37;91552.41;;;29.82;46.66
5952;BME280;3001;42.622;23.194;2023-06-19T10:48:05;91557.06;;;29.98;42.51
5952;BME280;3001;42.622;23.194;2023-06-19T10:50:34;91543.47;;;29.89;46.68
5952;BME280;3001;42.622;23.194;2023-06-19T10:53:03;91539.97;;;29.92;49.18
5952;BME280;3001;42.622;23.194;2023-06-19T10:55:30;91536.88;;;29.93;49.13
5952;BME280;3001;42.622;23.194;2023-06-19T10:57:57;91540.91;;;29.82;48.01
5952;BME280;3001;42.622;23.194;2023-06-19T11:00:26;91538.31;;;29.78;48.29
5952;BME280;3001;42.622;23.194;2023-06-19T11:02:55;91537.78;;;29.87;51.83
5952;BME280;3001;42.622;23.194;2023-06-19T11:05:22;91544.44;;;29.98;50.53
5952;BME280;3001;42.622;23.194;2023-06-19T11:07:53;91545.44;;;30.08;53.21
5952;BME280;3001;42.622;23.194;2023-06-19T11:10:21;91542.44;;;30.22;50.39
5952;BME280;3001;42.622;23.194;2023-06-19T11:12:48;91540.91;;;30.40;44.34
5952;BME280;3001;42.622;23.194;2023-06-19T11:15:16;91541.53;;;30.28;44.96
5952;BME280;3001;42.622;23.194;2023-06-19T11:17:42;91537.88;;;30.03;44.36
5952;BME280;3001;42.622;23.194;2023-06-19T11:20:12;91534.72;;;30.08;45.07
5952;BME280;3001;42.622;23.194;2023-06-19T11:22:40;91530.22;;;30.21;48.84
5952;BME280;3001;42.622;23.194;2023-06-19T11:25:09;91522.72;;;30.32;45.42
5952;BME280;3001;42.622;23.194;2023-06-19T11:27:38;91534.66;;;30.47;39.48
5952;BME280;3001;42.622;23.194;2023-06-19T11:30:06;91535.13;;;30.42;44.85
5952;BME280;3001;42.622;23.194;2023-06-19T11:32:36;91524.72;;;30.28;46.93
5952;BME280;3001;42.622;23.194;2023-06-19T11:35:09;91525.13;;;30.26;49.61
5952;BME280;3001;42.622;23.194;2023-06-19T11:37:39;91532.16;;;30.20;45.73
5952;BME280;3001;42.622;23.194;2023-06-19T11:40:08;91524.16;;;30.17;49.42
5952;BME280;3001;42.622;23.194;2023-06-19T11:42:52;91524.59;;;30.15;46.38
5952;BME280;3001;42.622;23.194;2023-06-19T11:45:19;91525.03;;;29.71;48.72
5952;BME280;3001;42.622;23.194;2023-06-19T11:47:46;91529.00;;;29.44;50.83
5952;BME280;3001;42.622;23.194;2023-06-19T11:50:14;91522.75;;;29.27;53.13
5952;BME280;3001;42.622;23.194;2023-06-19T11:52:43;91521.44;;;29.16;55.22
5952;BME280;3001;42.622;23.194;2023-06-19T11:55:11;91517.38;;;29.08;56.06
5952;BME280;3001;42.622;23.194;2023-06-19T11:57:38;91515.75;;;28.91;53.16
5952;BME280;3001;42.622;23.194;2023-06-19T12:00:14;91513.03;;;28.94;54.05
5952;BME280;3001;42.622;23.194;2023-06-19T12:02:41;91513.28;;;29.00;51.51
5952;BME280;3001;42.622;23.194;2023-06-19T12:05:08;91510.28;;;29.21;54.46
5952;BME280;3001;42.622;23.194;2023-06-19T12:07:36;91505.44;;;29.35;53.61
5952;BME280;3001;42.622;23.194;2023-06-19T12:10:05;91513.84;;;29.57;53.44
5952;BME280;3001;42.622;23.194;2023-06-19T12:12:36;91507.13;;;29.68;51.83
5952;BME280;3001;42.622;23.194;2023-06-19T12:15:05;91516.56;;;29.76;52.05
5952;BME280;3001;42.622;23.194;2023-06-19T12:17:32;91522.31;;;29.75;46.17
5952;BME280;3001;42.622;23.194;2023-06-19T12:19:59;91518.69;;;29.85;48.92
5952;BME280;3001;42.622;23.194;2023-06-19T12:22:26;91513.44;;;29.78;52.03
5952;BME280;3001;42.622;23.194;2023-06-19T12:24:53;91506.81;;;30.05;52.01
5952;BME280;3001;42.622;23.194;2023-06-19T12:27:21;91506.50;;;30.19;52.99
5952;BME280;3001;42.622;23.194;2023-06-19T12:29:48;91508.28;;;30.26;49.62
5952;BME280;3001;42.622;23.194;2023-06-19T12:32:15;91513.09;;;30.15;49.20
5952;BME280;3001;42.622;23.194;2023-06-19T12:34:41;91503.06;;;29.99;49.22
5952;BME280;3001;42.622;23.194;2023-06-19T12:37:12;91508.22;;;29.90;49.68
5952;BME280;3001;42.622;23.194;2023-06-19T12:39:38;91501.50;;;29.82;50.81
5952;BME280;3001;42.622;23.194;2023-06-19T12:42:06;91506.50;;;29.61;51.85
5952;BME280;3001;42.622;23.194;2023-06-19T12:44:34;91502.41;;;29.33;53.20
5952;BME280;3001;42.622;23.194;2023-06-19T12:47:01;91509.88;;;28.99;52.61
5952;BME280;3001;42.622;23.194;2023-06-19T12:49:30;91506.00;;;29.04;54.01
5952;BME280;3001;42.622;23.194;2023-06-19T12:51:56;91505.03;;;29.14;56.28
5952;BME280;3001;42.622;23.194;2023-06-19T12:54:23;91503.22;;;29.30;54.37
5952;BME280;3001;42.622;23.194;2023-06-19T12:56:50;91506.44;;;29.64;52.45
5952;BME280;3001;42.622;23.194;2023-06-19T12:59:16;91506.84;;;29.82;48.41
5952;BME280;3001;42.622;23.194;2023-06-19T13:01:45;91505.06;;;30.15;48.58
5952;BME280;3001;42.622;23.194;2023-06-19T13:04:12;91507.97;;;30.24;51.01
5952;BME280;3001;42.622;23.194;2023-06-19T13:06:39;91509.47;;;30.25;49.87
5952;BME280;3001;42.622;23.194;2023-06-19T13:09:06;91503.88;;;30.35;50.27
5952;BME280;3001;42.622;23.194;2023-06-19T13:11:33;91508.75;;;30.40;46.82